Time;durP1;ratioP1;P1;durP2;ratioP2;P2;SDS_P1;SDS_P2;PMS_P1;PMS_P2;Temp;Humidity;BMP_temperature;BMP_pressure;BME280_temperature;BME280_humidity;BME280_pressure;Samples;Min_cycle;Max_cycle;Signal;HPM_P1;HPM_P2
2022/07/24 00:00:04;;;;;;;2.35;1.23;;;18.60;93.20;;;;;;5054246;28;20445;-78
2022/07/24 00:02:30;;;;;;;1.40;1.20;;;18.50;93.30;;;;;;5075077;28;20043;-76
2022/07/24 00:04:56;;;;;;;4.07;1.90;;;18.40;93.50;;;;;;5056031;28;20025;-78
2022/07/24 00:07:22;;;;;;;2.80;1.88;;;18.40;93.60;;;;;;5057405;28;20038;-80
2022/07/24 00:09:47;;;;;;;1.65;1.35;;;18.40;93.70;;;;;;5054179;28;20058;-79
2022/07/24 00:12:13;;;;;;;2.78;1.90;;;18.30;94.00;;;;;;5071745;28;20056;-80
2022/07/24 00:14:38;;;;;;;4.57;1.63;;;18.30;94.20;;;;;;5071389;28;20085;-77
2022/07/24 00:17:04;;;;;;;3.47;1.70;;;18.30;94.30;;;;;;5052627;28;20037;-78
2022/07/24 00:19:29;;;;;;;2.47;1.95;;;18.30;94.40;;;;;;5052801;28;20028;-81
2022/07/24 00:21:57;;;;;;;2.75;2.00;;;18.20;94.40;;;;;;5070314;28;20024;-75
2022/07/24 00:24:22;;;;;;;3.78;2.20;;;18.20;94.60;;;;;;5052464;28;20120;-80
2022/07/24 00:26:48;;;;;;;4.97;2.40;;;18.10;94.70;;;;;;5051503;28;20128;-78
2022/07/24 00:29:13;;;;;;;3.53;2.55;;;18.10;94.80;;;;;;5070821;28;20429;-81
2022/07/24 00:31:39;;;;;;;2.90;2.17;;;18.10;94.90;;;;;;5052043;28;20039;-77
2022/07/24 00:34:04;;;;;;;6.47;2.70;;;18.00;95.20;;;;;;5052456;28;20032;-78
2022/07/24 00:36:29;;;;;;;5.28;3.30;;;18.00;95.20;;;;;;5069485;28;20086;-76
2022/07/24 00:38:55;;;;;;;4.07;2.97;;;18.00;95.40;;;;;;5069998;28;20056;-78
2022/07/24 00:41:20;;;;;;;4.95;3.22;;;17.90;95.50;;;;;;5070364;28;20048;-76
2022/07/24 00:44:12;;;;;;;4.55;3.47;;;17.80;95.70;;;;;;5052187;28;20056;-76
2022/07/24 00:46:39;;;;;;;7.65;3.55;;;17.80;95.80;;;;;;5069528;28;20111;-81
2022/07/24 00:49:07;;;;;;;6.88;3.45;;;17.70;96.00;;;;;;5070481;28;20024;-77
2022/07/24 00:51:34;;;;;;;8.85;3.75;;;17.70;96.20;;;;;;5051909;28;20657;-79
2022/07/24 00:54:05;;;;;;;6.30;3.90;;;17.60;96.30;;;;;;5069936;28;20025;-76
2022/07/24 00:56:31;;;;;;;4.97;3.70;;;17.60;96.50;;;;;;5069473;28;20379;-76
2022/07/24 00:58:56;;;;;;;5.85;4.05;;;17.60;96.70;;;;;;5051876;28;20031;-76
2022/07/24 01:01:22;;;;;;;7.57;3.25;;;17.50;96.90;;;;;;5051824;28;20024;-77
2022/07/24 01:03:48;;;;;;;6.18;4.15;;;17.50;97.10;;;;;;5069839;28;20478;-78
2022/07/24 01:06:14;;;;;;;4.30;3.72;;;17.50;97.20;;;;;;5069297;28;20059;-81
2022/07/24 01:08:42;;;;;;;6.22;3.78;;;17.40;97.20;;;;;;5070117;28;20111;-77
2022/07/24 01:11:09;;;;;;;5.90;3.78;;;17.40;97.30;;;;;;5069671;28;20111;-79
2022/07/24 01:13:35;;;;;;;3.88;3.03;;;17.40;97.40;;;;;;5051937;28;20074;-77
2022/07/24 01:16:01;;;;;;;5.00;3.20;;;17.30;97.30;;;;;;5068443;28;20082;-77
2022/07/24 01:18:26;;;;;;;4.03;3.03;;;17.30;97.20;;;;;;5052261;28;20462;-77
2022/07/24 01:20:52;;;;;;;5.07;2.92;;;17.30;97.20;;;;;;5070042;28;20758;-81
2022/07/24 01:23:17;;;;;;;5.78;3.08;;;17.30;97.20;;;;;;5069404;28;20080;-77
2022/07/24 01:25:43;;;;;;;2.75;2.40;;;17.30;97.20;;;;;;5068986;28;20090;-80
2022/07/24 01:28:09;;;;;;;4.57;2.90;;;17.20;97.30;;;;;;5051955;28;20513;-77
2022/07/24 01:30:34;;;;;;;5.15;2.42;;;17.20;97.30;;;;;;5069945;28;20025;-77
2022/07/24 01:33:00;;;;;;;3.35;2.55;;;17.20;97.30;;;;;;5051434;28;20474;-77
2022/07/24 01:35:26;;;;;;;2.95;2.28;;;17.20;97.30;;;;;;5050893;28;20027;-76
2022/07/24 01:37:52;;;;;;;3.50;2.58;;;17.20;97.40;;;;;;5069286;28;20033;-77
2022/07/24 01:40:19;;;;;;;5.47;2.70;;;17.10;97.30;;;;;;5069494;28;20426;-76
2022/07/24 01:42:44;;;;;;;3.53;2.25;;;17.10;97.30;;;;;;5069734;28;20036;-77
2022/07/24 01:45:10;;;;;;;7.75;2.70;;;17.10;97.50;;;;;;5069602;28;20033;-77
2022/07/24 01:47:35;;;;;;;6.15;2.80;;;17.10;97.60;;;;;;5050913;28;20593;-77
2022/07/24 01:50:03;;;;;;;5.00;2.85;;;17.10;97.70;;;;;;5051515;28;20526;-76
2022/07/24 01:52:28;;;;;;;3.75;2.92;;;17.00;97.70;;;;;;5050809;28;20035;-77
2022/07/24 01:54:54;;;;;;;3.15;2.45;;;17.00;97.80;;;;;;5051445;28;20024;-80
2022/07/24 01:57:19;;;;;;;7.68;2.65;;;17.00;97.80;;;;;;5064526;28;20108;-77
2022/07/24 01:59:45;;;;;;;5.22;3.10;;;17.00;97.80;;;;;;5069186;28;20037;-76
2022/07/24 02:02:11;;;;;;;2.75;2.45;;;17.00;97.80;;;;;;5068035;28;20074;-81
2022/07/24 02:04:37;;;;;;;3.05;2.33;;;16.90;97.80;;;;;;5069991;28;20025;-81
2022/07/24 02:07:02;;;;;;;3.60;2.80;;;16.90;97.90;;;;;;5054639;28;20509;-77
2022/07/24 02:09:28;;;;;;;3.72;2.15;;;16.90;98.00;;;;;;5051555;28;20035;-79
2022/07/24 02:11:54;;;;;;;2.70;2.40;;;16.90;98.10;;;;;;5050813;28;20441;-81
2022/07/24 02:14:19;;;;;;;4.78;2.92;;;16.80;98.10;;;;;;5069837;28;20104;-79
2022/07/24 02:16:45;;;;;;;3.83;2.80;;;16.80;98.10;;;;;;5050275;28;20043;-78
2022/07/24 02:19:11;;;;;;;3.33;2.63;;;16.80;98.10;;;;;;5051546;28;20474;-78
2022/07/24 02:21:36;;;;;;;4.03;2.28;;;16.80;98.30;;;;;;5050817;28;20053;-78
2022/07/24 02:24:02;;;;;;;2.75;2.40;;;16.70;98.40;;;;;;5069403;28;20040;-81
2022/07/24 02:26:27;;;;;;;4.55;3.03;;;16.70;98.50;;;;;;5069185;28;20042;-77
2022/07/24 02:28:53;;;;;;;3.70;2.97;;;16.70;98.50;;;;;;5054825;28;20029;-76
2022/07/24 02:31:19;;;;;;;3.05;2.47;;;16.60;98.50;;;;;;5072530;28;20186;-78
2022/07/24 02:33:44;;;;;;;3.30;3.00;;;16.60;98.50;;;;;;5072473;28;20573;-79
2022/07/24 02:36:10;;;;;;;3.20;2.53;;;16.60;98.50;;;;;;5071642;28;20044;-77
2022/07/24 02:38:35;;;;;;;3.55;2.75;;;16.60;98.60;;;;;;5054553;28;20497;-79
2022/07/24 02:41:01;;;;;;;4.18;2.50;;;16.50;98.70;;;;;;5054081;28;20032;-77
2022/07/24 02:43:27;;;;;;;3.17;2.88;;;16.50;98.80;;;;;;5072666;28;20031;-77
2022/07/24 02:45:52;;;;;;;4.47;2.60;;;16.50;98.80;;;;;;5072091;28;20067;-83
2022/07/24 02:48:18;;;;;;;3.17;2.75;;;16.50;98.90;;;;;;5054489;28;20029;-77
2022/07/24 02:50:43;;;;;;;3.97;2.80;;;16.40;99.00;;;;;;5071825;28;20032;-77
2022/07/24 02:53:09;;;;;;;5.38;2.40;;;16.40;99.00;;;;;;5072584;28;20555;-77
2022/07/24 02:55:34;;;;;;;3.13;2.40;;;16.40;99.10;;;;;;5053495;28;20035;-78
2022/07/24 02:58:00;;;;;;;7.22;3.08;;;16.40;99.10;;;;;;5054313;28;20045;-77
2022/07/24 03:00:25;;;;;;;4.97;2.70;;;16.40;99.20;;;;;;5072334;28;20081;-82
2022/07/24 03:02:51;;;;;;;4.40;2.80;;;16.40;99.20;;;;;;5053497;28;20526;-82
2022/07/24 03:05:17;;;;;;;4.57;3.10;;;16.30;99.20;;;;;;5071273;28;20466;-77
2022/07/24 03:07:42;;;;;;;3.17;2.85;;;16.30;99.20;;;;;;5071456;28;20173;-78
2022/07/24 03:10:10;;;;;;;4.40;2.72;;;16.30;99.20;;;;;;5071898;28;20040;-78
2022/07/24 03:12:35;;;;;;;3.90;2.88;;;16.30;99.40;;;;;;5071563;28;20052;-76
2022/07/24 03:15:01;;;;;;;3.53;2.92;;;16.30;99.50;;;;;;5071822;28;20442;-78
2022/07/24 03:17:27;;;;;;;3.20;2.88;;;16.30;99.50;;;;;;5071116;28;20043;-77
2022/07/24 03:19:52;;;;;;;3.47;2.72;;;16.20;99.50;;;;;;5054635;28;20484;-76
2022/07/24 03:22:18;;;;;;;4.05;2.90;;;16.20;99.60;;;;;;5072661;28;20043;-78
2022/07/24 03:24:43;;;;;;;6.10;2.85;;;16.20;99.70;;;;;;5053979;28;20024;-76
2022/07/24 03:27:09;;;;;;;4.43;3.40;;;16.20;99.70;;;;;;5071269;28;20024;-77
2022/07/24 03:29:34;;;;;;;5.60;3.08;;;16.10;99.70;;;;;;5071479;28;20060;-76
2022/07/24 03:32:00;;;;;;;3.58;2.95;;;16.00;99.70;;;;;;5071361;28;20039;-80
2022/07/24 03:34:25;;;;;;;5.35;2.97;;;16.00;99.80;;;;;;5071363;28;20028;-79
2022/07/24 03:36:51;;;;;;;3.97;2.47;;;16.00;99.80;;;;;;5070659;28;20035;-77
2022/07/24 03:39:17;;;;;;;3.60;2.95;;;16.00;99.80;;;;;;5070297;28;20044;-76
2022/07/24 03:41:42;;;;;;;3.20;2.70;;;16.00;99.90;;;;;;5052899;28;20071;-80
2022/07/24 03:44:08;;;;;;;6.10;2.83;;;16.00;99.90;;;;;;5071559;28;20028;-77
2022/07/24 03:46:34;;;;;;;4.35;2.63;;;16.00;99.90;;;;;;5070433;28;20037;-76
2022/07/24 03:48:59;;;;;;;3.20;2.88;;;16.00;99.90;;;;;;5071032;28;20032;-78
2022/07/24 03:51:25;;;;;;;3.97;3.10;;;15.90;99.90;;;;;;5052907;28;20390;-77
2022/07/24 03:53:50;;;;;;;4.28;2.95;;;15.90;99.90;;;;;;5070816;28;20041;-79
2022/07/24 03:56:16;;;;;;;4.55;3.15;;;15.90;99.90;;;;;;5052149;28;20070;-77
2022/07/24 03:58:42;;;;;;;3.40;2.90;;;15.90;99.90;;;;;;5070735;28;20040;-76
2022/07/24 04:01:07;;;;;;;2.95;2.53;;;15.90;99.90;;;;;;5052284;28;20052;-81
2022/07/24 04:03:33;;;;;;;3.80;2.90;;;15.90;99.90;;;;;;5052979;28;20024;-79
2022/07/24 04:06:04;;;;;;;3.92;2.83;;;15.90;99.90;;;;;;5070299;28;20102;-80
2022/07/24 04:08:29;;;;;;;5.65;3.40;;;15.90;99.90;;;;;;5086184;28;20028;-77
2022/07/24 04:10:58;;;;;;;3.35;2.90;;;15.90;99.90;;;;;;5052438;28;20123;-77
2022/07/24 04:13:25;;;;;;;3.20;2.85;;;15.90;99.90;;;;;;5052698;28;20390;-78
2022/07/24 04:15:51;;;;;;;4.07;2.53;;;15.90;99.90;;;;;;5051893;28;20039;-77
2022/07/24 04:18:16;;;;;;;3.28;2.97;;;15.90;99.90;;;;;;5070708;28;20383;-80
2022/07/24 04:20:42;;;;;;;3.65;2.67;;;15.90;99.90;;;;;;5070380;28;20573;-80
2022/07/24 04:23:07;;;;;;;4.55;3.33;;;16.00;99.90;;;;;;5052471;28;20036;-82
2022/07/24 04:25:34;;;;;;;3.42;3.08;;;16.00;99.90;;;;;;5051983;28;20588;-77
2022/07/24 04:28:00;;;;;;;3.90;2.90;;;16.00;99.90;;;;;;5070748;28;20108;-78
2022/07/24 04:30:25;;;;;;;3.08;2.72;;;16.00;99.90;;;;;;5070678;28;20135;-78
2022/07/24 04:32:51;;;;;;;3.63;3.00;;;16.10;99.90;;;;;;5070360;28;20111;-78
2022/07/24 04:35:16;;;;;;;3.20;2.88;;;16.10;99.90;;;;;;5069993;28;20025;-80
2022/07/24 04:37:42;;;;;;;4.40;3.38;;;16.10;99.90;;;;;;5051648;28;20410;-78
2022/07/24 04:40:08;;;;;;;5.70;2.88;;;16.10;99.90;;;;;;5070539;28;20044;-77
2022/07/24 04:42:33;;;;;;;3.95;2.85;;;16.20;99.90;;;;;;5051990;28;20043;-78
2022/07/24 04:44:59;;;;;;;4.47;3.22;;;16.20;99.90;;;;;;5070162;28;20432;-77
2022/07/24 04:47:24;;;;;;;3.60;2.97;;;16.20;99.90;;;;;;5069526;28;20043;-77
2022/07/24 04:49:50;;;;;;;5.00;3.80;;;16.30;99.90;;;;;;5070373;28;20036;-78
2022/07/24 04:52:15;;;;;;;4.18;2.85;;;16.30;99.90;;;;;;5069825;28;20071;-77
2022/07/24 04:54:41;;;;;;;2.97;2.50;;;16.40;99.90;;;;;;5070429;28;20033;-81
2022/07/24 04:57:06;;;;;;;4.45;2.63;;;16.40;99.90;;;;;;5051531;28;20033;-78
2022/07/24 04:59:32;;;;;;;3.22;2.70;;;16.50;99.90;;;;;;5070523;28;20036;-77
2022/07/24 05:01:57;;;;;;;4.80;2.72;;;16.50;99.90;;;;;;5069712;28;20033;-78
2022/07/24 05:04:23;;;;;;;4.28;2.60;;;16.60;99.90;;;;;;5069736;28;20093;-79
2022/07/24 05:06:48;;;;;;;7.43;2.67;;;16.60;99.90;;;;;;5051047;28;20079;-82
2022/07/24 05:09:14;;;;;;;4.00;2.83;;;16.60;99.90;;;;;;5051737;28;20040;-78
2022/07/24 05:11:39;;;;;;;4.65;2.90;;;16.70;99.90;;;;;;5051869;28;20029;-77
2022/07/24 05:14:05;;;;;;;5.20;3.50;;;16.80;99.90;;;;;;5069962;28;20029;-77
2022/07/24 05:16:31;;;;;;;4.13;3.30;;;16.80;99.90;;;;;;5069302;28;20043;-79
2022/07/24 05:18:56;;;;;;;3.95;2.90;;;16.90;99.90;;;;;;5069828;28;20089;-78
2022/07/24 05:21:22;;;;;;;5.05;3.33;;;16.90;99.90;;;;;;5051755;28;20371;-82
2022/07/24 05:23:47;;;;;;;4.28;2.70;;;17.00;99.80;;;;;;5051529;28;20121;-77
2022/07/24 05:26:13;;;;;;;3.35;2.88;;;17.10;99.70;;;;;;5051238;28;20028;-79
2022/07/24 05:28:38;;;;;;;4.25;3.40;;;17.20;99.60;;;;;;5069919;28;20028;-78
2022/07/24 05:31:04;;;;;;;5.30;2.83;;;17.20;99.50;;;;;;5051182;28;20025;-78
2022/07/24 05:33:30;;;;;;;7.07;3.20;;;17.30;99.40;;;;;;5069870;28;20095;-78
2022/07/24 05:35:55;;;;;;;3.75;3.05;;;17.40;99.20;;;;;;5068722;28;20110;-82
2022/07/24 05:38:21;;;;;;;5.07;4.07;;;17.40;99.20;;;;;;5051484;28;20036;-78
2022/07/24 05:40:46;;;;;;;4.53;3.63;;;17.50;99.10;;;;;;5069250;28;20025;-78
2022/07/24 05:43:12;;;;;;;4.65;3.10;;;17.60;98.80;;;;;;5069905;28;20108;-81
2022/07/24 05:45:37;;;;;;;5.55;3.97;;;17.70;98.30;;;;;;5069297;28;20032;-80
2022/07/24 05:48:03;;;;;;;5.43;4.03;;;17.80;98.10;;;;;;5069538;28;20064;-78
2022/07/24 05:50:28;;;;;;;3.50;3.00;;;17.90;98.00;;;;;;5069668;28;20028;-78
2022/07/24 05:52:54;;;;;;;4.45;3.08;;;18.00;97.90;;;;;;5068911;28;20032;-77
2022/07/24 05:55:19;;;;;;;4.28;2.97;;;18.10;97.00;;;;;;5051380;28;20036;-86
2022/07/24 05:57:45;;;;;;;3.78;2.88;;;18.20;96.80;;;;;;5069282;28;20043;-82
2022/07/24 06:00:13;;;;;;;5.75;2.92;;;18.30;96.20;;;;;;5051541;28;20036;-81
2022/07/24 06:02:38;;;;;;;4.20;2.47;;;18.40;95.80;;;;;;5053739;28;20081;-78
2022/07/24 06:05:04;;;;;;;3.47;2.63;;;18.60;95.70;;;;;;5073561;28;20056;-77
2022/07/24 06:07:30;;;;;;;3.38;2.63;;;18.70;95.50;;;;;;5072869;28;20052;-78
2022/07/24 06:09:55;;;;;;;3.20;2.35;;;18.80;95.40;;;;;;5072921;28;20035;-78
2022/07/24 06:12:21;;;;;;;4.38;2.45;;;18.90;95.30;;;;;;5072919;28;20082;-78
2022/07/24 06:14:46;;;;;;;2.25;1.48;;;19.10;95.10;;;;;;5055051;28;20033;-78
2022/07/24 06:17:12;;;;;;;4.60;1.40;;;19.20;94.20;;;;;;5072271;28;20032;-77
2022/07/24 06:19:37;;;;;;;3.30;1.30;;;19.20;93.60;;;;;;5073245;28;20040;-78
2022/07/24 06:22:03;;;;;;;1.90;1.17;;;19.40;93.30;;;;;;5072502;28;20447;-77
2022/07/24 06:24:28;;;;;;;1.17;0.85;;;19.50;92.40;;;;;;5055002;28;20059;-78
2022/07/24 06:26:54;;;;;;;1.38;1.00;;;19.60;92.30;;;;;;5072464;28;20036;-78
2022/07/24 06:29:19;;;;;;;1.98;1.13;;;19.70;91.70;;;;;;5073062;28;20069;-78
2022/07/24 06:31:44;;;;;;;2.40;1.20;;;19.90;91.90;;;;;;5054925;28;20060;-82
2022/07/24 06:34:10;;;;;;;2.83;1.10;;;20.00;91.70;;;;;;5073084;28;20398;-81
2022/07/24 06:36:35;;;;;;;2.95;1.58;;;20.10;90.80;;;;;;5073317;28;20115;-78
2022/07/24 06:39:01;;;;;;;2.08;1.13;;;20.20;90.90;;;;;;5073857;28;20044;-80
2022/07/24 06:41:26;;;;;;;2.00;1.08;;;20.30;90.40;;;;;;5054778;28;20137;-78
2022/07/24 06:43:52;;;;;;;1.30;0.95;;;20.40;90.30;;;;;;5072698;28;20024;-78
2022/07/24 06:46:17;;;;;;;1.90;0.95;;;20.50;90.40;;;;;;5072158;28;20032;-79
2022/07/24 06:48:43;;;;;;;1.25;0.80;;;20.60;90.10;;;;;;5054433;28;20033;-78
2022/07/24 06:51:08;;;;;;;1.10;0.70;;;20.70;89.10;;;;;;5072342;28;20324;-77
2022/07/24 06:53:34;;;;;;;1.73;0.93;;;20.80;88.80;;;;;;5054526;28;20029;-80
2022/07/24 06:56:01;;;;;;;1.52;1.00;;;20.90;89.20;;;;;;5071430;28;20028;-77
2022/07/24 06:58:26;;;;;;;1.45;0.90;;;21.10;89.20;;;;;;5054437;28;20542;-78
2022/07/24 07:00:52;;;;;;;2.90;0.93;;;21.20;88.70;;;;;;5071864;28;20111;-78
2022/07/24 07:03:18;;;;;;;2.08;0.95;;;21.30;88.10;;;;;;5072460;28;20036;-81
2022/07/24 07:05:43;;;;;;;1.35;0.80;;;21.40;87.10;;;;;;5071745;28;20850;-78
2022/07/24 07:08:09;;;;;;;1.35;0.85;;;21.50;87.90;;;;;;5072469;28;20020;-83
2022/07/24 07:10:34;;;;;;;1.23;0.70;;;21.60;87.10;;;;;;5072203;28;20465;-79
2022/07/24 07:13:00;;;;;;;2.20;0.63;;;21.70;86.60;;;;;;5070573;28;20037;-79
2022/07/24 07:15:26;;;;;;;3.45;0.75;;;21.80;86.00;;;;;;5071858;28;20036;-79
2022/07/24 07:17:52;;;;;;;1.70;0.80;;;21.90;84.40;;;;;;5071932;28;20025;-78
2022/07/24 07:20:17;;;;;;;2.65;0.63;;;22.00;84.20;;;;;;5072394;28;20368;-80
2022/07/24 07:22:43;;;;;;;1.20;0.60;;;22.10;84.30;;;;;;5071452;28;20032;-77
2022/07/24 07:25:09;;;;;;;1.48;0.68;;;22.20;82.00;;;;;;5053820;28;20029;-79
2022/07/24 07:27:35;;;;;;;2.17;0.70;;;22.30;83.20;;;;;;5053245;28;20035;-79
2022/07/24 07:30:02;;;;;;;1.23;0.70;;;22.40;83.30;;;;;;5053906;28;20328;-81
2022/07/24 07:32:28;;;;;;;2.65;0.80;;;22.60;85.00;;;;;;5053300;28;20032;-78
2022/07/24 07:34:53;;;;;;;1.33;0.80;;;22.70;84.30;;;;;;5071709;28;20032;-81
2022/07/24 07:37:19;;;;;;;1.08;0.60;;;22.80;81.70;;;;;;5053243;28;20394;-78
2022/07/24 07:39:44;;;;;;;1.15;0.50;;;23.00;81.40;;;;;;5053046;28;20032;-80
2022/07/24 07:42:10;;;;;;;1.38;0.50;;;23.10;81.10;;;;;;5071414;28;20036;-79
2022/07/24 07:44:35;;;;;;;0.60;0.40;;;23.30;78.70;;;;;;5071441;28;20111;-79
2022/07/24 07:47:01;;;;;;;2.15;0.70;;;23.40;79.50;;;;;;5052643;28;20060;-79
2022/07/24 07:49:27;;;;;;;2.63;0.70;;;23.50;80.70;;;;;;5053648;28;20505;-78
2022/07/24 07:51:53;;;;;;;1.52;0.60;;;23.60;79.90;;;;;;5053077;28;20573;-83
2022/07/24 07:54:18;;;;;;;1.77;0.47;;;23.70;78.70;;;;;;5053346;28;20060;-77
2022/07/24 07:56:44;;;;;;;0.80;0.55;;;23.90;77.40;;;;;;5070264;28;20466;-81
2022/07/24 07:59:09;;;;;;;1.15;0.50;;;24.00;76.40;;;;;;5071350;28;20087;-78
2022/07/24 08:01:36;;;;;;;1.10;0.70;;;24.10;77.30;;;;;;5052640;28;20451;-79
2022/07/24 08:04:02;;;;;;;0.63;0.57;;;24.20;77.80;;;;;;5070951;28;20032;-79
2022/07/24 08:06:27;;;;;;;1.00;0.60;;;24.30;76.60;;;;;;5086060;28;20469;-79
2022/07/24 08:08:53;;;;;;;0.63;0.55;;;24.40;75.30;;;;;;5070340;28;20036;-79
2022/07/24 08:11:19;;;;;;;1.38;0.47;;;24.40;76.20;;;;;;5070808;28;20056;-81
2022/07/24 08:13:45;;;;;;;2.03;0.55;;;24.40;75.50;;;;;;5052547;28;20390;-79
2022/07/24 08:16:10;;;;;;;2.30;0.70;;;24.50;77.50;;;;;;5052370;28;20035;-78
2022/07/24 08:18:36;;;;;;;0.95;0.52;;;24.60;76.10;;;;;;5070690;28;20036;-80
2022/07/24 08:21:02;;;;;;;1.77;0.90;;;24.70;76.80;;;;;;5070421;28;20032;-79
2022/07/24 08:23:27;;;;;;;9.60;0.50;;;24.90;75.00;;;;;;5070318;28;20082;-79
2022/07/24 08:25:52;;;;;;;1.02;0.50;;;25.00;74.20;;;;;;5051352;28;20124;-80
2022/07/24 08:28:18;;;;;;;2.15;0.85;;;25.10;71.90;;;;;;5070449;28;20036;-78
2022/07/24 08:30:43;;;;;;;1.58;1.02;;;25.20;73.50;;;;;;5051985;28;20693;-81
2022/07/24 08:33:09;;;;;;;2.10;0.52;;;25.30;72.10;;;;;;5071292;28;20027;-76
2022/07/24 08:35:35;;;;;;;1.35;0.60;;;25.40;74.30;;;;;;5069633;28;20323;-76
2022/07/24 08:38:02;;;;;;;1.20;0.55;;;25.40;74.10;;;;;;5070057;28;20040;-79
2022/07/24 08:40:34;;;;;;;1.80;0.80;;;25.50;73.70;;;;;;5070553;28;20040;-82
2022/07/24 08:43:00;;;;;;;;;;;25.60;72.60;;;;;;5085942;28;20320;-78
2022/07/24 08:45:26;;;;;;;1.35;0.80;;;25.60;72.70;;;;;;5069974;28;19915;-82
2022/07/24 08:47:51;;;;;;;1.77;0.57;;;25.70;72.70;;;;;;5052093;28;20028;-83
2022/07/24 08:50:17;;;;;;;1.35;0.77;;;25.70;71.80;;;;;;5052344;28;20063;-81
2022/07/24 08:52:44;;;;;;;0.95;0.70;;;25.80;72.00;;;;;;5069352;28;20040;-79
2022/07/24 08:55:09;;;;;;;2.22;0.98;;;25.80;74.50;;;;;;5070372;28;20028;-79
2022/07/24 08:57:35;;;;;;;1.30;0.70;;;25.90;72.90;;;;;;5069662;28;20040;-78
2022/07/24 09:00:00;;;;;;;2.50;0.90;;;26.00;72.50;;;;;;5051874;28;20119;-78
2022/07/24 09:02:27;;;;;;;2.13;0.70;;;26.20;71.40;;;;;;5069803;28;20060;-79
2022/07/24 09:04:59;;;;;;;1.10;0.70;;;26.30;70.90;;;;;;5051864;28;20031;-81
2022/07/24 09:07:26;;;;;;;;;;;26.40;70.40;;;;;;5069729;28;20081;-79
2022/07/24 09:10:04;;;;;;;1.00;0.60;;;26.50;71.00;;;;;;5051490;28;19965;-81
2022/07/24 09:12:44;;;;;;;1.38;0.90;;;26.70;68.50;;;;;;5069916;28;20027;-79
2022/07/24 09:15:30;;;;;;;1.55;0.70;;;26.80;72.00;;;;;;5052204;28;20115;-80
2022/07/24 09:17:56;;;;;;;2.67;0.65;;;26.90;66.90;;;;;;5051497;28;20041;-82
2022/07/24 09:20:24;;;;;;;2.50;0.80;;;26.90;67.70;;;;;;5052262;28;20037;-79
2022/07/24 09:22:50;;;;;;;1.00;0.70;;;27.00;69.80;;;;;;5052227;28;20032;-79
2022/07/24 09:25:20;;;;;;;0.88;0.50;;;27.10;67.60;;;;;;5069364;28;20037;-82
2022/07/24 09:27:56;;;;;;;2.70;0.70;;;27.20;68.20;;;;;;5069441;28;20040;-80
2022/07/24 09:30:33;;;;;;;6.53;0.80;;;27.30;66.50;;;;;;5069986;28;20039;-79
2022/07/24 09:33:06;;;;;;;1.85;0.90;;;27.40;67.40;;;;;;5069039;28;20039;-82
2022/07/24 09:35:41;;;;;;;2.13;0.73;;;27.60;66.50;;;;;;5051363;28;20131;-79
2022/07/24 09:38:12;;;;;;;2.85;1.10;;;27.60;67.30;;;;;;5073295;28;20047;-79
2022/07/24 09:40:43;;;;;;;1.00;0.50;;;27.70;66.00;;;;;;5073849;28;20041;-78
2022/07/24 09:43:12;;;;;;;1.83;0.70;;;27.70;67.50;;;;;;5073953;28;20090;-78
2022/07/24 09:46:05;;;;;;;1.65;0.63;;;27.80;66.90;;;;;;5054929;28;20033;-81
2022/07/24 09:48:50;;;;;;;1.05;0.63;;;28.00;67.70;;;;;;5074205;28;20467;-79
2022/07/24 09:51:17;;;;;;;1.63;0.55;;;28.10;65.70;;;;;;5055721;28;20033;-80
2022/07/24 09:53:47;;;;;;;1.55;0.80;;;28.20;63.60;;;;;;5075510;28;20043;-81
2022/07/24 09:56:17;;;;;;;0.80;0.60;;;28.20;62.90;;;;;;5075708;28;20348;-82
2022/07/24 09:58:45;;;;;;;3.35;1.35;;;28.30;63.60;;;;;;5074991;28;20036;-80
2022/07/24 10:01:23;;;;;;;5.80;0.88;;;28.40;64.20;;;;;;5074415;28;20028;-80
2022/07/24 10:03:50;;;;;;;3.05;0.85;;;28.30;63.40;;;;;;5074005;28;20059;-82
2022/07/24 10:06:21;;;;;;;4.32;0.90;;;28.20;62.30;;;;;;5054945;28;20039;-79
2022/07/24 10:08:50;;;;;;;2.37;0.80;;;28.00;63.40;;;;;;5055039;28;20036;-79
2022/07/24 10:11:17;;;;;;;1.70;0.77;;;27.90;63.70;;;;;;5054736;28;20036;-82
2022/07/24 10:13:43;;;;;;;2.45;0.70;;;27.90;61.90;;;;;;5055086;28;20032;-81
2022/07/24 10:16:12;;;;;;;1.33;0.80;;;28.00;64.20;;;;;;5054814;28;20089;-82
2022/07/24 10:18:50;;;;;;;2.80;0.90;;;28.20;62.30;;;;;;5072940;28;20036;-81
2022/07/24 10:21:19;;;;;;;1.00;0.90;;;28.40;62.70;;;;;;5054806;28;20494;-81
2022/07/24 10:24:18;;;;;;;0.88;0.63;;;28.50;61.90;;;;;;5072497;28;20092;-81
2022/07/24 10:26:48;;;;;;;2.72;1.38;;;28.70;60.90;;;;;;5054410;28;20074;-81
2022/07/24 10:29:23;;;;;;;1.75;0.80;;;29.00;61.80;;;;;;5072956;28;20507;-83
2022/07/24 10:31:54;;;;;;;2.40;0.77;;;29.10;59.60;;;;;;5054702;28;20029;-83
2022/07/24 10:34:51;;;;;;;2.08;1.23;;;29.20;59.20;;;;;;5054785;28;20082;-82
2022/07/24 10:37:54;;;;;;;2.47;0.88;;;29.40;59.90;;;;;;5053878;28;20071;-83
2022/07/24 10:40:40;;;;;;;0.98;0.60;;;29.60;60.90;;;;;;5072608;28;20104;-82
2022/07/24 10:43:05;;;;;;;1.20;0.73;;;29.70;57.30;;;;;;5072505;28;20036;-81
2022/07/24 10:45:54;;;;;;;2.58;0.93;;;29.60;57.80;;;;;;5071702;28;20040;-81
2022/07/24 10:48:20;;;;;;;2.33;0.70;;;29.70;58.80;;;;;;5046198;28;20032;-81
2022/07/24 10:51:00;;;;;;;4.03;1.25;;;29.80;59.80;;;;;;5053891;28;20033;-81
2022/07/24 10:53:48;;;;;;;1.65;0.73;;;29.90;56.80;;;;;;5054488;28;20038;-83
2022/07/24 10:56:23;;;;;;;0.95;0.80;;;30.10;56.60;;;;;;5071616;28;20040;-81
2022/07/24 10:58:58;;;;;;;1.83;1.00;;;30.30;61.50;;;;;;5072123;28;20035;-84
2022/07/24 11:01:28;;;;;;;1.83;0.63;;;30.50;60.60;;;;;;5054105;28;20410;-81
2022/07/24 11:03:54;;;;;;;1.52;1.13;;;30.70;55.40;;;;;;5072335;28;20033;-83
2022/07/24 11:06:39;;;;;;;1.85;1.13;;;30.90;59.80;;;;;;5053423;28;20031;-81
2022/07/24 11:09:04;;;;;;;1.55;0.80;;;31.10;54.10;;;;;;5072157;28;20040;-81
2022/07/24 11:11:30;;;;;;;1.23;0.82;;;31.20;53.00;;;;;;5053998;28;20039;-81
2022/07/24 11:14:01;;;;;;;2.05;0.82;;;31.20;54.20;;;;;;5053857;28;20356;-80
2022/07/24 11:16:28;;;;;;;1.65;1.15;;;31.30;54.20;;;;;;5071413;28;20379;-80
2022/07/24 11:18:54;;;;;;;1.05;0.90;;;31.30;53.70;;;;;;5053803;28;20076;-83
2022/07/24 11:21:37;;;;;;;3.85;0.90;;;31.40;58.00;;;;;;5072551;28;20086;-81
2022/07/24 11:24:21;;;;;;;1.38;1.02;;;31.50;56.00;;;;;;5053351;28;20024;-83
2022/07/24 11:26:57;;;;;;;1.40;0.80;;;31.50;53.90;;;;;;5053221;28;20055;-80
2022/07/24 11:29:26;;;;;;;1.60;0.85;;;31.50;56.60;;;;;;5072236;28;20135;-81
2022/07/24 11:31:56;;;;;;;1.60;1.10;;;31.50;54.60;;;;;;5053294;28;20036;-82
2022/07/24 11:34:25;;;;;;;2.55;0.80;;;31.50;54.30;;;;;;5053825;28;20029;-80
2022/07/24 11:36:52;;;;;;;1.33;0.75;;;31.60;55.10;;;;;;5052805;28;20039;-83
2022/07/24 11:39:19;;;;;;;2.15;0.98;;;31.60;53.30;;;;;;5071433;28;20028;-81
2022/07/24 11:41:50;;;;;;;1.60;0.80;;;31.70;52.10;;;;;;5053005;28;20072;-82
2022/07/24 11:44:52;;;;;;;2.17;0.80;;;31.70;50.20;;;;;;5071871;28;20119;-81
2022/07/24 11:47:26;;;;;;;1.27;0.88;;;31.60;49.60;;;;;;4989145;28;20061;-81
2022/07/24 11:49:55;;;;;;;0.80;0.73;;;31.50;50.90;;;;;;5041724;28;20033;-82
2022/07/24 11:52:26;;;;;;;1.30;0.60;;;31.30;52.00;;;;;;5071050;28;20074;-84
2022/07/24 11:54:55;;;;;;;1.07;0.70;;;31.20;53.10;;;;;;5059925;28;20414;-83
2022/07/24 11:57:35;;;;;;;2.10;0.90;;;31.20;52.90;;;;;;5052473;28;20036;-86
2022/07/24 12:00:01;;;;;;;1.05;0.70;;;31.30;52.40;;;;;;5053667;28;20032;-86
2022/07/24 12:02:27;;;;;;;2.05;0.90;;;31.40;52.30;;;;;;5087567;28;20074;-83
2022/07/24 12:04:53;;;;;;;1.80;0.80;;;31.50;51.80;;;;;;5053792;28;20089;-84
2022/07/24 12:07:24;;;;;;;1.33;0.98;;;31.50;51.70;;;;;;5053563;28;20375;-86
2022/07/24 12:09:59;;;;;;;1.63;1.05;;;31.40;51.80;;;;;;5071711;28;20024;-82
2022/07/24 12:12:28;;;;;;;2.72;1.02;;;31.30;50.50;;;;;;5053452;28;20497;-84
2022/07/24 12:15:11;;;;;;;1.48;0.90;;;31.30;51.20;;;;;;5071139;28;20020;-85
2022/07/24 12:18:06;;;;;;;2.53;0.80;;;31.40;53.80;;;;;;5052707;28;20032;-83
2022/07/24 12:20:37;;;;;;;1.33;0.73;;;31.50;50.70;;;;;;5071189;28;20028;-83
2022/07/24 12:23:05;;;;;;;2.20;0.90;;;31.50;49.30;;;;;;5070294;28;20032;-82
2022/07/24 12:25:32;;;;;;;1.58;0.90;;;31.50;48.80;;;;;;5070352;28;20036;-84
2022/07/24 12:28:12;;;;;;;1.20;0.73;;;31.60;51.80;;;;;;5070692;28;20059;-85
2022/07/24 12:30:40;;;;;;;1.67;0.70;;;31.70;49.20;;;;;;5052705;28;20045;-83
2022/07/24 12:33:26;;;;;;;2.35;0.90;;;31.70;50.30;;;;;;5070328;28;20021;-85
2022/07/24 12:35:55;;;;;;;1.25;1.13;;;31.80;50.00;;;;;;5070405;28;20104;-84
2022/07/24 12:38:29;;;;;;;3.55;0.93;;;31.90;51.00;;;;;;5070604;28;20737;-86
2022/07/24 12:41:07;;;;;;;2.15;0.80;;;31.90;50.10;;;;;;5070219;28;20450;-83
2022/07/24 12:43:46;;;;;;;2.35;0.95;;;32.20;51.70;;;;;;5070924;28;20385;-82
2022/07/24 12:46:11;;;;;;;2.95;0.70;;;32.40;52.60;;;;;;5070159;28;20078;-81
2022/07/24 12:48:38;;;;;;;1.48;1.00;;;32.50;48.00;;;;;;5070689;28;20393;-84
2022/07/24 12:51:12;;;;;;;1.17;0.80;;;32.40;47.40;;;;;;5070557;28;20027;-84